Time,TemperatureF,DewpointF,PressureIn,WindDirection,WindDirectionDegrees,WindSpeedMPH,WindSpeedGustMPH,Humidity,HourlyPrecipIn,Conditions,Clouds,dailyrainin,SoftwareType,DateUTC
2013-09-14 00:00:00,62.5,57.9,29.91,East,92,0.0,0.0,85,0.00,,,0.00,WeatherTracker,2013-09-14 06:00:00,
2013-09-14 00:05:00,62.4,58.2,29.91,East,92,0.0,0.0,86,0.00,,,0.00,WeatherTracker,2013-09-14 06:05:00,
2013-09-14 00:10:00,62.4,58.2,29.91,East,92,0.0,0.0,86,0.00,,,0.00,WeatherTracker,2013-09-14 06:10:00,
2013-09-14 00:15:00,62.5,58.3,29.91,East,92,0.0,1.0,86,0.00,,,0.00,WeatherTracker,2013-09-14 06:15:00,
2013-09-14 00:20:00,62.6,58.0,29.91,East,92,0.0,1.0,85,0.00,,,0.00,WeatherTracker,2013-09-14 06:20:00,
2013-09-14 00:25:00,62.6,58.3,29.90,East,92,0.0,1.0,86,0.00,,,0.00,WeatherTracker,2013-09-14 06:25:00,
2013-09-14 00:30:00,62.5,58.3,29.90,East,92,0.0,0.0,86,0.00,,,0.00,WeatherTracker,2013-09-14 06:30:00,
2013-09-14 00:35:00,62.5,58.3,29.90,East,92,0.0,1.0,86,0.00,,,0.00,WeatherTracker,2013-09-14 06:35:00,
2013-09-14 00:40:00,62.3,58.1,29.90,East,92,0.0,1.0,86,0.00,,,0.00,WeatherTracker,2013-09-14 06:40:00,
2013-09-14 00:45:00,62.3,58.1,29.90,East,92,0.0,0.0,86,0.00,,,0.00,WeatherTracker,2013-09-14 06:45:00,
2013-09-14 00:50:00,62.4,58.5,29.90,East,92,0.0,1.0,87,0.00,,,0.00,WeatherTracker,2013-09-14 06:50:00,
2013-09-14 00:55:00,62.4,58.5,29.90,East,92,0.0,1.0,87,0.00,,,0.00,WeatherTracker,2013-09-14 06:55:00,
2013-09-14 01:00:00,62.3,58.1,29.91,East,92,0.0,0.0,86,0.00,,,0.00,WeatherTracker,2013-09-14 07:00:00,
2013-09-14 01:05:00,62.6,58.3,29.91,East,92,0.0,0.0,86,0.00,,,0.00,WeatherTracker,2013-09-14 07:05:00,
2013-09-14 01:10:00,62.8,58.9,29.91,East,92,0.0,0.0,87,0.00,,,0.00,WeatherTracker,2013-09-14 07:10:00,
2013-09-14 01:15:00,62.9,59.0,29.91,East,92,0.0,0.0,87,0.00,,,0.00,WeatherTracker,2013-09-14 07:15:00,
2013-09-14 01:21:00,62.9,59.0,29.90,East,92,0.0,1.0,87,0.00,,,0.00,WeatherTracker,2013-09-14 07:21:00,
2013-09-14 01:26:00,62.9,59.0,29.91,East,92,0.0,0.0,87,0.00,,,0.00,WeatherTracker,2013-09-14 07:26:00,
2013-09-14 01:31:00,62.8,58.9,29.90,East,92,0.0,0.0,87,0.00,,,0.00,WeatherTracker,2013-09-14 07:31:00,
2013-09-14 01:36:00,62.8,58.9,29.90,East,92,0.0,1.0,87,0.00,,,0.00,WeatherTracker,2013-09-14 07:36:00,
2013-09-14 01:41:00,62.9,59.3,29.90,East,92,0.0,1.0,88,0.00,,,0.00,WeatherTracker,2013-09-14 07:41:00,
2013-09-14 01:46:00,63.0,59.4,29.90,East,92,0.0,0.0,88,0.00,,,0.00,WeatherTracker,2013-09-14 07:46:00,
2013-09-14 01:51:00,63.2,58.9,29.90,East,92,0.0,0.0,86,0.00,,,0.00,WeatherTracker,2013-09-14 07:51:00,
2013-09-14 01:56:00,63.2,58.9,29.90,East,92,0.0,0.0,86,0.00,,,0.00,WeatherTracker,2013-09-14 07:56:00,
2013-09-14 02:01:00,63.3,59.0,29.90,East,92,0.0,0.0,86,0.00,,,0.00,WeatherTracker,2013-09-14 08:01:00,
2013-09-14 02:06:00,63.4,58.8,29.90,East,92,0.0,0.0,85,0.00,,,0.00,WeatherTracker,2013-09-14 08:06:00,
2013-09-14 02:11:00,63.5,58.9,29.90,East,92,0.0,0.0,85,0.00,,,0.00,WeatherTracker,2013-09-14 08:11:00,
2013-09-14 02:16:00,63.8,58.9,29.90,East,92,0.0,0.0,84,0.00,,,0.00,WeatherTracker,2013-09-14 08:16:00,
2013-09-14 02:21:00,64.0,59.1,29.90,East,92,0.0,1.0,84,0.00,,,0.00,WeatherTracker,2013-09-14 08:21:00,
2013-09-14 02:26:00,64.4,59.5,29.91,East,92,1.0,1.0,84,0.01,,,0.01,WeatherTracker,2013-09-14 08:26:00,
2013-09-14 02:31:00,64.0,59.7,29.91,South,176,0.0,3.0,86,0.02,,,0.02,WeatherTracker,2013-09-14 08:31:00,
2013-09-14 02:36:00,63.5,59.6,29.91,South,180,0.0,3.0,87,0.02,,,0.02,WeatherTracker,2013-09-14 08:36:00,
2013-09-14 02:41:00,63.0,59.4,29.91,South,178,1.0,3.0,88,0.02,,,0.02,WeatherTracker,2013-09-14 08:41:00,
2013-09-14 02:46:00,62.8,59.2,29.90,NW,305,0.0,3.0,88,0.02,,,0.02,WeatherTracker,2013-09-14 08:46:00,
2013-09-14 02:51:00,62.7,59.4,29.91,NW,305,0.0,2.0,89,0.02,,,0.02,WeatherTracker,2013-09-14 08:51:00,
2013-09-14 02:56:00,62.6,59.6,29.91,NNW,346,2.0,4.0,90,0.02,,,0.02,WeatherTracker,2013-09-14 08:56:00,
2013-09-14 03:01:00,62.5,59.5,29.91,NNW,346,1.0,4.0,90,0.02,,,0.02,WeatherTracker,2013-09-14 09:01:00,
2013-09-14 03:06:00,62.4,59.4,29.91,NNW,346,0.0,3.0,90,0.02,,,0.02,WeatherTracker,2013-09-14 09:06:00,
2013-09-14 03:11:00,62.3,59.3,29.91,WSW,258,0.0,3.0,90,0.02,,,0.02,WeatherTracker,2013-09-14 09:11:00,
2013-09-14 03:16:00,62.2,59.2,29.91,WSW,252,0.0,3.0,90,0.02,,,0.02,WeatherTracker,2013-09-14 09:16:00,
2013-09-14 03:22:00,62.4,59.4,29.91,WSW,246,0.0,2.0,90,0.02,,,0.02,WeatherTracker,2013-09-14 09:22:00,
2013-09-14 03:27:00,62.5,59.5,29.90,WSW,246,0.0,1.0,90,0.01,,,0.02,WeatherTracker,2013-09-14 09:27:00,
2013-09-14 03:32:00,62.5,59.8,29.91,WSW,246,0.0,1.0,91,0.01,,,0.03,WeatherTracker,2013-09-14 09:32:00,
2013-09-14 03:37:00,62.3,59.3,29.90,WSW,246,0.0,1.0,90,0.01,,,0.03,WeatherTracker,2013-09-14 09:37:00,
2013-09-14 03:42:00,62.3,59.6,29.90,WSW,246,0.0,2.0,91,0.01,,,0.03,WeatherTracker,2013-09-14 09:42:00,
2013-09-14 03:47:00,62.4,59.7,29.90,WSW,246,0.0,2.0,91,0.01,,,0.03,WeatherTracker,2013-09-14 09:47:00,
2013-09-14 03:52:00,62.3,59.6,29.90,WSW,246,0.0,0.0,91,0.01,,,0.03,WeatherTracker,2013-09-14 09:52:00,
2013-09-14 03:57:00,62.3,59.6,29.90,WSW,246,0.0,1.0,91,0.01,,,0.03,WeatherTracker,2013-09-14 09:57:00,
2013-09-14 04:02:00,62.3,59.6,29.90,WSW,246,0.0,2.0,91,0.01,,,0.03,WeatherTracker,2013-09-14 10:02:00,
2013-09-14 04:07:00,62.4,59.7,29.89,WSW,247,0.0,2.0,91,0.01,,,0.03,WeatherTracker,2013-09-14 10:07:00,
2013-09-14 04:12:00,62.3,59.6,29.89,WSW,247,0.0,3.0,91,0.01,,,0.03,WeatherTracker,2013-09-14 10:12:00,
2013-09-14 04:17:00,62.3,59.9,29.89,WNW,285,0.0,3.0,92,0.01,,,0.03,WeatherTracker,2013-09-14 10:17:00,
2013-09-14 04:22:00,62.2,59.8,29.89,NNW,338,0.0,2.0,92,0.02,,,0.04,WeatherTracker,2013-09-14 10:22:00,
2013-09-14 04:27:00,62.1,59.7,29.89,NNW,338,1.0,2.0,92,0.02,,,0.04,WeatherTracker,2013-09-14 10:27:00,
2013-09-14 04:32:00,62.0,59.6,29.89,NNW,338,0.0,1.0,92,0.01,,,0.04,WeatherTracker,2013-09-14 10:32:00,
2013-09-14 04:37:00,61.9,59.5,29.89,West,279,1.0,3.0,92,0.02,,,0.05,WeatherTracker,2013-09-14 10:37:00,
2013-09-14 04:42:00,62.0,59.6,29.89,NW,307,1.0,3.0,92,0.03,,,0.06,WeatherTracker,2013-09-14 10:42:00,
2013-09-14 04:47:00,62.0,59.6,29.89,NW,325,1.0,3.0,92,0.03,,,0.06,WeatherTracker,2013-09-14 10:47:00,
2013-09-14 04:52:00,61.9,59.9,29.89,NW,325,0.0,3.0,93,0.03,,,0.06,WeatherTracker,2013-09-14 10:52:00,
2013-09-14 04:57:00,62.0,60.0,29.90,NW,325,0.0,2.0,93,0.05,,,0.08,WeatherTracker,2013-09-14 10:57:00,
2013-09-14 05:02:00,61.8,59.8,29.90,NW,325,1.0,2.0,93,0.09,,,0.12,WeatherTracker,2013-09-14 11:02:00,
2013-09-14 05:07:00,61.5,59.2,29.91,NW,325,0.0,2.0,92,0.14,,,0.17,WeatherTracker,2013-09-14 11:07:00,
2013-09-14 05:12:00,61.4,59.4,29.91,NW,325,0.0,2.0,93,0.19,,,0.22,WeatherTracker,2013-09-14 11:12:00,
2013-09-14 05:17:00,61.6,59.6,29.91,NW,325,0.0,2.0,93,0.20,,,0.23,WeatherTracker,2013-09-14 11:17:00,
2013-09-14 05:22:00,61.4,59.4,29.91,NW,325,1.0,2.0,93,0.23,,,0.27,WeatherTracker,2013-09-14 11:22:00,
2013-09-14 05:27:00,61.5,59.5,29.91,NW,325,1.0,2.0,93,0.24,,,0.28,WeatherTracker,2013-09-14 11:27:00,
2013-09-14 05:32:00,61.3,59.3,29.91,NW,325,0.0,3.0,93,0.26,,,0.30,WeatherTracker,2013-09-14 11:32:00,
2013-09-14 05:37:00,61.3,59.3,29.92,NW,325,0.0,3.0,93,0.26,,,0.31,WeatherTracker,2013-09-14 11:37:00,
2013-09-14 05:42:00,61.0,59.0,29.91,NW,325,0.0,1.0,93,0.25,,,0.31,WeatherTracker,2013-09-14 11:42:00,
2013-09-14 05:48:00,61.1,59.1,29.92,NW,325,0.0,0.0,93,0.26,,,0.32,WeatherTracker,2013-09-14 11:48:00,
2013-09-14 05:53:00,61.3,59.6,29.92,NNE,33,1.0,2.0,94,0.26,,,0.32,WeatherTracker,2013-09-14 11:53:00,
2013-09-14 05:58:00,61.1,59.1,29.92,East,95,6.0,6.0,93,0.24,,,0.32,WeatherTracker,2013-09-14 11:58:00,
2013-09-14 06:03:00,60.4,58.4,29.92,ESE,103,0.0,6.0,93,0.20,,,0.32,WeatherTracker,2013-09-14 12:03:00,
2013-09-14 06:08:00,60.1,58.1,29.92,ESE,103,0.0,6.0,93,0.14,,,0.32,WeatherTracker,2013-09-14 12:08:00,
2013-09-14 06:13:00,60.1,58.1,29.92,ESE,103,0.0,2.0,93,0.10,,,0.32,WeatherTracker,2013-09-14 12:13:00,
2013-09-14 06:18:00,59.9,57.9,29.92,ESE,103,0.0,1.0,93,0.08,,,0.32,WeatherTracker,2013-09-14 12:18:00,
2013-09-14 06:23:00,60.1,58.1,29.92,NNW,335,5.0,5.0,93,0.05,,,0.32,WeatherTracker,2013-09-14 12:23:00,
2013-09-14 06:28:00,59.8,57.5,29.92,NNW,334,3.0,5.0,92,0.03,,,0.32,WeatherTracker,2013-09-14 12:28:00,
2013-09-14 06:33:00,59.8,57.5,29.92,NNW,348,2.0,7.0,92,0.02,,,0.32,WeatherTracker,2013-09-14 12:33:00,
2013-09-14 06:38:00,59.7,57.4,29.92,North,9,4.0,7.0,92,0.01,,,0.32,WeatherTracker,2013-09-14 12:38:00,
2013-09-14 06:43:00,59.7,57.4,29.92,North,355,2.0,5.0,92,0.01,,,0.32,WeatherTracker,2013-09-14 12:43:00,
2013-09-14 06:48:00,59.6,57.0,29.92,NW,315,2.0,4.0,91,0.00,,,0.32,WeatherTracker,2013-09-14 12:48:00,
2013-09-14 06:53:00,59.7,57.1,29.92,NNW,342,1.0,4.0,91,0.00,,,0.32,WeatherTracker,2013-09-14 12:53:00,
2013-09-14 06:58:00,60.0,57.4,29.92,North,355,3.0,4.0,91,0.00,,,0.32,WeatherTracker,2013-09-14 12:58:00,
2013-09-14 07:03:00,60.1,57.5,29.92,NNW,347,0.0,5.0,91,0.00,,,0.32,WeatherTracker,2013-09-14 13:03:00,
2013-09-14 07:08:00,60.1,57.2,29.92,NNW,342,2.0,5.0,90,0.00,,,0.32,WeatherTracker,2013-09-14 13:08:00,
2013-09-14 07:13:00,60.2,57.3,29.93,NNW,341,0.0,4.0,90,0.00,,,0.32,WeatherTracker,2013-09-14 13:13:00,
2013-09-14 07:18:00,60.3,57.7,29.93,NNW,341,0.0,3.0,91,0.00,,,0.32,WeatherTracker,2013-09-14 13:18:00,
2013-09-14 07:23:00,60.4,57.8,29.93,NNW,341,0.0,1.0,91,0.00,,,0.32,WeatherTracker,2013-09-14 13:23:00,
2013-09-14 07:28:00,60.4,57.8,29.93,NNW,342,2.0,3.0,91,0.00,,,0.32,WeatherTracker,2013-09-14 13:28:00,
2013-09-14 07:33:00,60.5,57.9,29.94,North,9,1.0,4.0,91,0.01,,,0.33,WeatherTracker,2013-09-14 13:33:00,
2013-09-14 07:38:00,60.7,58.1,29.94,North,9,1.0,4.0,91,0.01,,,0.33,WeatherTracker,2013-09-14 13:38:00,
2013-09-14 07:43:00,60.7,58.1,29.94,NNE,18,2.0,4.0,91,0.01,,,0.33,WeatherTracker,2013-09-14 13:43:00,
2013-09-14 07:48:00,60.8,58.2,29.94,NNE,17,2.0,4.0,91,0.01,,,0.33,WeatherTracker,2013-09-14 13:48:00,
2013-09-14 07:54:00,60.9,58.3,29.94,NNE,24,0.0,4.0,91,0.02,,,0.34,WeatherTracker,2013-09-14 13:54:00,
2013-09-14 07:59:00,61.1,58.5,29.94,NW,307,2.0,3.0,91,0.02,,,0.34,WeatherTracker,2013-09-14 13:59:00,
2013-09-14 08:04:00,61.1,58.5,29.94,NNE,17,1.0,5.0,91,0.02,,,0.34,WeatherTracker,2013-09-14 14:04:00,
2013-09-14 08:09:00,61.3,58.6,29.94,NNW,329,3.0,5.0,91,0.02,,,0.34,WeatherTracker,2013-09-14 14:09:00,
2013-09-14 08:14:00,61.4,58.7,29.94,North,5,2.0,5.0,91,0.02,,,0.34,WeatherTracker,2013-09-14 14:14:00,
2013-09-14 08:19:00,61.4,58.7,29.94,North,5,0.0,5.0,91,0.02,,,0.34,WeatherTracker,2013-09-14 14:19:00,
2013-09-14 08:24:00,61.4,58.7,29.94,NNE,13,2.0,4.0,91,0.02,,,0.34,WeatherTracker,2013-09-14 14:24:00,
2013-09-14 08:29:00,61.5,58.8,29.94,NNE,12,0.0,4.0,91,0.02,,,0.34,WeatherTracker,2013-09-14 14:29:00,
2013-09-14 08:34:00,61.4,58.7,29.94,NNE,17,3.0,3.0,91,0.01,,,0.34,WeatherTracker,2013-09-14 14:34:00,
2013-09-14 08:39:00,61.5,58.8,29.94,NNE,20,0.0,4.0,91,0.01,,,0.34,WeatherTracker,2013-09-14 14:39:00,
2013-09-14 08:44:00,61.5,58.8,29.94,NNE,20,0.0,4.0,91,0.01,,,0.34,WeatherTracker,2013-09-14 14:44:00,
2013-09-14 08:49:00,61.6,58.9,29.94,NNE,20,1.0,3.0,91,0.01,,,0.34,WeatherTracker,2013-09-14 14:49:00,
2013-09-14 08:54:00,61.8,59.4,29.94,NNE,19,0.0,3.0,92,0.00,,,0.34,WeatherTracker,2013-09-14 14:54:00,
2013-09-14 08:59:00,61.8,59.1,29.94,ENE,69,0.0,4.0,91,0.00,,,0.34,WeatherTracker,2013-09-14 14:59:00,
2013-09-14 09:04:00,62.0,59.3,29.95,ENE,58,1.0,4.0,91,0.00,,,0.34,WeatherTracker,2013-09-14 15:04:00,
2013-09-14 09:09:00,62.1,59.4,29.95,East,79,0.0,2.0,91,0.00,,,0.34,WeatherTracker,2013-09-14 15:09:00,
2013-09-14 09:14:00,62.2,59.5,29.95,East,79,1.0,2.0,91,0.00,,,0.34,WeatherTracker,2013-09-14 15:14:00,
2013-09-14 09:19:00,62.3,59.6,29.95,ESE,113,0.0,3.0,91,0.00,,,0.34,WeatherTracker,2013-09-14 15:19:00,
2013-09-14 09:24:00,62.3,59.6,29.95,ESE,107,1.0,3.0,91,0.00,,,0.34,WeatherTracker,2013-09-14 15:24:00,
2013-09-14 09:29:00,62.3,59.3,29.95,East,81,3.0,5.0,90,0.00,,,0.34,WeatherTracker,2013-09-14 15:29:00,
2013-09-14 09:34:00,62.3,59.3,29.95,East,97,0.0,5.0,90,0.00,,,0.34,WeatherTracker,2013-09-14 15:34:00,
2013-09-14 09:39:00,62.7,60.0,29.95,East,88,0.0,3.0,91,0.00,,,0.34,WeatherTracker,2013-09-14 15:39:00,
2013-09-14 09:44:00,62.9,59.6,29.95,North,5,1.0,3.0,89,0.00,,,0.34,WeatherTracker,2013-09-14 15:44:00,
2013-09-14 09:49:00,63.7,60.4,29.95,ENE,65,0.0,3.0,89,0.00,,,0.34,WeatherTracker,2013-09-14 15:49:00,
2013-09-14 09:54:00,64.2,60.2,29.95,NNE,26,0.0,4.0,87,0.00,,,0.34,WeatherTracker,2013-09-14 15:54:00,
2013-09-14 09:59:00,65.4,61.7,29.95,North,360,0.0,4.0,88,0.00,,,0.34,WeatherTracker,2013-09-14 15:59:00,
2013-09-14 10:04:00,65.3,59.7,29.95,ENE,68,1.0,5.0,82,0.00,,,0.34,WeatherTracker,2013-09-14 16:04:00,
2013-09-14 10:09:00,65.4,60.1,29.95,East,101,1.0,5.0,83,0.00,,,0.34,WeatherTracker,2013-09-14 16:09:00,
2013-09-14 10:15:00,65.1,59.8,29.95,ESE,103,0.0,5.0,83,0.00,,,0.34,WeatherTracker,2013-09-14 16:15:00,
2013-09-14 10:20:00,65.2,59.6,29.95,North,9,1.0,5.0,82,0.00,,,0.34,WeatherTracker,2013-09-14 16:20:00,
2013-09-14 10:25:00,65.6,60.0,29.95,East,98,2.0,5.0,82,0.00,,,0.34,WeatherTracker,2013-09-14 16:25:00,
2013-09-14 10:30:00,66.1,59.7,29.95,North,9,2.0,5.0,80,0.00,,,0.34,WeatherTracker,2013-09-14 16:30:00,
2013-09-14 10:35:00,66.2,59.5,29.95,North,351,4.0,6.0,79,0.00,,,0.34,WeatherTracker,2013-09-14 16:35:00,
2013-09-14 10:40:00,66.6,59.5,29.95,ESE,110,1.0,8.0,78,0.00,,,0.34,WeatherTracker,2013-09-14 16:40:00,
2013-09-14 10:45:00,68.0,61.6,29.95,NE,49,1.0,8.0,80,0.00,,,0.34,WeatherTracker,2013-09-14 16:45:00,
2013-09-14 10:50:00,68.1,60.6,29.95,NW,315,3.0,5.0,77,0.00,,,0.34,WeatherTracker,2013-09-14 16:50:00,
2013-09-14 10:55:00,67.8,59.6,29.95,NW,311,4.0,6.0,75,0.00,,,0.34,WeatherTracker,2013-09-14 16:55:00,
2013-09-14 11:00:00,67.6,59.4,29.95,ENE,74,2.0,6.0,75,0.00,,,0.34,WeatherTracker,2013-09-14 17:00:00,
2013-09-14 11:05:00,67.6,59.0,29.94,NNE,13,4.0,8.0,74,0.00,,,0.34,WeatherTracker,2013-09-14 17:05:00,
2013-09-14 11:10:00,67.5,58.5,29.94,ENE,59,0.0,8.0,73,0.00,,,0.34,WeatherTracker,2013-09-14 17:10:00,
2013-09-14 11:15:00,68.2,59.6,29.94,North,360,4.0,7.0,74,0.00,,,0.34,WeatherTracker,2013-09-14 17:15:00,
2013-09-14 11:20:00,68.2,58.4,29.94,NNW,333,3.0,7.0,71,0.00,,,0.34,WeatherTracker,2013-09-14 17:20:00,
2013-09-14 11:25:00,68.6,59.2,29.94,NNW,333,7.0,7.0,72,0.00,,,0.34,WeatherTracker,2013-09-14 17:25:00,
2013-09-14 11:30:00,69.6,59.8,29.94,North,9,4.0,8.0,71,0.00,,,0.34,WeatherTracker,2013-09-14 17:30:00,
2013-09-14 11:35:00,68.9,58.3,29.94,North,9,1.0,8.0,69,0.00,,,0.34,WeatherTracker,2013-09-14 17:35:00,
2013-09-14 11:40:00,68.0,57.8,29.94,NNW,330,2.0,6.0,70,0.00,,,0.34,WeatherTracker,2013-09-14 17:40:00,
2013-09-14 11:45:00,68.3,58.5,29.93,East,95,2.0,6.0,71,0.00,,,0.34,WeatherTracker,2013-09-14 17:45:00,
2013-09-14 11:50:00,68.5,58.7,29.93,ENE,76,2.0,5.0,71,0.00,,,0.34,WeatherTracker,2013-09-14 17:50:00,
2013-09-14 11:55:00,68.4,57.4,29.93,East,79,1.0,7.0,68,0.00,,,0.34,WeatherTracker,2013-09-14 17:55:00,
2013-09-14 12:01:00,68.4,57.4,29.93,North,11,1.0,7.0,68,0.00,,,0.34,WeatherTracker,2013-09-14 18:01:00,
2013-09-14 12:06:00,68.8,57.4,29.93,ENE,67,0.0,5.0,67,0.00,,,0.34,WeatherTracker,2013-09-14 18:06:00,
2013-09-14 12:11:00,69.4,58.0,29.93,North,360,2.0,6.0,67,0.00,,,0.34,WeatherTracker,2013-09-14 18:11:00,
2013-09-14 12:16:00,69.3,58.3,29.93,NNE,33,2.0,6.0,68,0.00,,,0.34,WeatherTracker,2013-09-14 18:16:00,
2013-09-14 12:21:00,69.4,57.5,29.93,SE,136,0.0,4.0,66,0.00,,,0.34,WeatherTracker,2013-09-14 18:21:00,
2013-09-14 12:26:00,69.3,57.4,29.93,ENE,78,1.0,5.0,66,0.00,,,0.34,WeatherTracker,2013-09-14 18:26:00,
2013-09-14 12:31:00,69.0,57.6,29.93,East,93,1.0,6.0,67,0.00,,,0.34,WeatherTracker,2013-09-14 18:31:00,
2013-09-14 12:36:00,69.0,58.8,29.92,NNW,344,0.0,6.0,70,0.00,,,0.34,WeatherTracker,2013-09-14 18:36:00,
2013-09-14 12:41:00,69.9,58.8,29.92,ESE,122,0.0,5.0,68,0.00,,,0.34,WeatherTracker,2013-09-14 18:41:00,
2013-09-14 12:46:00,69.3,58.3,29.92,ENE,74,1.0,5.0,68,0.00,,,0.34,WeatherTracker,2013-09-14 18:46:00,
2013-09-14 12:51:00,69.5,58.1,29.92,North,360,0.0,4.0,67,0.00,,,0.34,WeatherTracker,2013-09-14 18:51:00,
2013-09-14 12:56:00,69.4,58.0,29.92,SE,144,2.0,5.0,67,0.00,,,0.34,WeatherTracker,2013-09-14 18:56:00,
2013-09-14 13:01:00,69.2,58.2,29.91,ESE,115,1.0,5.0,68,0.00,,,0.34,WeatherTracker,2013-09-14 19:01:00,
2013-09-14 13:06:00,70.1,58.6,29.91,ESE,113,0.0,4.0,67,0.00,,,0.34,WeatherTracker,2013-09-14 19:06:00,
2013-09-14 13:11:00,69.8,58.3,29.91,ESE,103,3.0,5.0,67,0.00,,,0.34,WeatherTracker,2013-09-14 19:11:00,
2013-09-14 13:17:00,69.5,57.6,29.91,ESE,121,1.0,5.0,66,0.00,,,0.34,WeatherTracker,2013-09-14 19:17:00,
2013-09-14 13:22:00,70.0,58.1,29.91,SSE,159,2.0,6.0,66,0.00,,,0.34,WeatherTracker,2013-09-14 19:22:00,
2013-09-14 13:27:00,69.5,57.6,29.90,ENE,61,1.0,6.0,66,0.00,,,0.34,WeatherTracker,2013-09-14 19:27:00,
2013-09-14 13:32:00,70.1,57.3,29.90,ESE,123,1.0,5.0,64,0.00,,,0.34,WeatherTracker,2013-09-14 19:32:00,
2013-09-14 13:37:00,70.3,58.0,29.90,ESE,115,2.0,7.0,65,0.00,,,0.34,WeatherTracker,2013-09-14 19:37:00,
2013-09-14 13:42:00,69.9,58.4,29.90,NNW,331,1.0,7.0,67,0.00,,,0.34,WeatherTracker,2013-09-14 19:42:00,
2013-09-14 13:47:00,70.5,57.3,29.90,East,96,1.0,4.0,63,0.00,,,0.34,WeatherTracker,2013-09-14 19:47:00,
2013-09-14 13:52:00,70.8,57.6,29.90,NE,40,1.0,5.0,63,0.00,,,0.34,WeatherTracker,2013-09-14 19:52:00,
2013-09-14 13:57:00,71.9,59.0,29.89,East,95,3.0,5.0,64,0.00,,,0.34,WeatherTracker,2013-09-14 19:57:00,
2013-09-14 14:02:00,71.6,57.9,29.89,ESE,117,0.0,7.0,62,0.00,,,0.34,WeatherTracker,2013-09-14 20:02:00,
2013-09-14 14:07:00,71.6,57.4,29.89,ENE,76,2.0,7.0,61,0.00,,,0.34,WeatherTracker,2013-09-14 20:07:00,
2013-09-14 14:12:00,71.9,58.2,29.88,NNW,336,4.0,6.0,62,0.00,,,0.34,WeatherTracker,2013-09-14 20:12:00,
2013-09-14 14:17:00,73.0,57.3,29.88,ESE,111,0.0,6.0,58,0.00,,,0.34,WeatherTracker,2013-09-14 20:17:00,
2013-09-14 14:22:00,74.2,58.5,29.88,East,84,1.0,6.0,58,0.00,,,0.34,WeatherTracker,2013-09-14 20:22:00,
2013-09-14 14:27:00,73.9,57.2,29.87,East,97,1.0,7.0,56,0.00,,,0.34,WeatherTracker,2013-09-14 20:27:00,
2013-09-14 14:32:00,73.6,56.9,29.86,NNW,329,1.0,7.0,56,0.00,,,0.34,WeatherTracker,2013-09-14 20:32:00,
2013-09-14 14:37:00,73.5,56.8,29.86,NNW,347,3.0,5.0,56,0.00,,,0.34,WeatherTracker,2013-09-14 20:37:00,
2013-09-14 14:42:00,73.0,56.4,29.86,North,5,0.0,4.0,56,0.00,,,0.34,WeatherTracker,2013-09-14 20:42:00,
2013-09-14 14:47:00,73.7,56.5,29.86,NNE,33,0.0,8.0,55,0.00,,,0.34,WeatherTracker,2013-09-14 20:47:00,
2013-09-14 14:53:00,74.9,60.1,29.85,ENE,57,2.0,8.0,60,0.00,,,0.34,WeatherTracker,2013-09-14 20:53:00,
2013-09-14 14:58:00,74.1,56.9,29.85,East,94,3.0,7.0,55,0.00,,,0.34,WeatherTracker,2013-09-14 20:58:00,
2013-09-14 15:03:00,74.9,57.1,29.84,ESE,114,2.0,7.0,54,0.00,,,0.34,WeatherTracker,2013-09-14 21:03:00,
2013-09-14 15:08:00,74.7,57.9,29.84,ESE,123,4.0,8.0,56,0.00,,,0.34,WeatherTracker,2013-09-14 21:08:00,
2013-09-14 15:13:00,75.1,57.3,29.84,ESE,123,2.0,8.0,54,0.00,,,0.34,WeatherTracker,2013-09-14 21:13:00,
2013-09-14 15:18:00,75.4,58.6,29.84,NE,48,1.0,9.0,56,0.00,,,0.34,WeatherTracker,2013-09-14 21:18:00,
2013-09-14 15:23:00,75.0,57.2,29.84,North,9,3.0,9.0,54,0.00,,,0.34,WeatherTracker,2013-09-14 21:23:00,
2013-09-14 15:28:00,74.7,57.4,29.84,NW,314,0.0,6.0,55,0.00,,,0.34,WeatherTracker,2013-09-14 21:28:00,
2013-09-14 15:33:00,74.9,57.6,29.84,East,101,3.0,5.0,55,0.00,,,0.34,WeatherTracker,2013-09-14 21:33:00,
2013-09-14 15:38:00,75.6,57.2,29.83,ESE,107,1.0,7.0,53,0.00,,,0.34,WeatherTracker,2013-09-14 21:38:00,
2013-09-14 15:43:00,76.2,58.8,29.84,North,350,1.0,7.0,55,0.00,,,0.34,WeatherTracker,2013-09-14 21:43:00,
2013-09-14 15:48:00,76.6,58.7,29.84,North,5,2.0,6.0,54,0.00,,,0.34,WeatherTracker,2013-09-14 21:48:00,
2013-09-14 15:53:00,75.9,58.0,29.84,SSE,161,2.0,6.0,54,0.00,,,0.34,WeatherTracker,2013-09-14 21:53:00,
2013-09-14 15:58:00,76.4,58.5,29.84,ENE,62,0.0,5.0,54,0.00,,,0.34,WeatherTracker,2013-09-14 21:58:00,
2013-09-14 16:03:00,75.5,57.2,29.84,ENE,61,0.0,7.0,53,0.00,,,0.34,WeatherTracker,2013-09-14 22:03:00,
2013-09-14 16:08:00,74.9,57.6,29.84,East,90,0.0,7.0,55,0.00,,,0.34,WeatherTracker,2013-09-14 22:08:00,
2013-09-14 16:13:00,74.9,57.6,29.84,SSE,149,0.0,5.0,55,0.00,,,0.34,WeatherTracker,2013-09-14 22:13:00,
2013-09-14 16:18:00,74.8,58.0,29.83,ESE,114,3.0,5.0,56,0.00,,,0.34,WeatherTracker,2013-09-14 22:18:00,
2013-09-14 16:23:00,74.5,58.3,29.84,ESE,115,3.0,5.0,57,0.00,,,0.34,WeatherTracker,2013-09-14 22:23:00,
2013-09-14 16:28:00,74.3,58.1,29.83,ESE,120,3.0,5.0,57,0.00,,,0.34,WeatherTracker,2013-09-14 22:28:00,
2013-09-14 16:33:00,74.5,58.7,29.84,ESE,123,3.0,4.0,58,0.00,,,0.34,WeatherTracker,2013-09-14 22:33:00,
2013-09-14 16:38:00,74.3,58.5,29.84,East,79,5.0,5.0,58,0.00,,,0.34,WeatherTracker,2013-09-14 22:38:00,
2013-09-14 16:43:00,74.0,57.8,29.84,SE,126,2.0,5.0,57,0.00,,,0.34,WeatherTracker,2013-09-14 22:43:00,
2013-09-14 16:48:00,73.6,58.4,29.84,ESE,111,2.0,5.0,59,0.00,,,0.34,WeatherTracker,2013-09-14 22:48:00,
2013-09-14 16:50:00,73.7,58.5,29.84,SSE,149,2.0,4.0,59,0.00,,,0.34,WeatherTracker,2013-09-14 22:50:00,
2013-09-14 16:55:00,73.6,58.8,29.84,SSE,148,0.0,4.0,60,0.00,,,0.34,WeatherTracker,2013-09-14 22:55:00,
2013-09-14 17:00:00,73.8,58.6,29.84,ESE,109,0.0,5.0,59,0.00,,,0.34,WeatherTracker,2013-09-14 23:00:00,
2013-09-14 17:05:00,73.8,58.1,29.84,SE,140,2.0,5.0,58,0.00,,,0.34,WeatherTracker,2013-09-14 23:05:00,
2013-09-14 17:10:00,73.4,59.1,29.84,SSE,153,0.0,4.0,61,0.00,,,0.34,WeatherTracker,2013-09-14 23:10:00,
2013-09-14 17:15:00,73.5,58.3,29.84,SE,146,1.0,4.0,59,0.00,,,0.34,WeatherTracker,2013-09-14 23:15:00,
2013-09-14 17:20:00,73.2,58.0,29.84,SSE,155,1.0,3.0,59,0.00,,,0.34,WeatherTracker,2013-09-14 23:20:00,
2013-09-14 17:25:00,73.4,58.7,29.84,ESE,104,1.0,3.0,60,0.00,,,0.34,WeatherTracker,2013-09-14 23:25:00,
2013-09-14 17:30:00,73.5,57.8,29.84,ESE,121,1.0,3.0,58,0.00,,,0.34,WeatherTracker,2013-09-14 23:30:00,
2013-09-14 17:35:00,73.5,57.8,29.84,SSE,161,0.0,3.0,58,0.00,,,0.34,WeatherTracker,2013-09-14 23:35:00,
2013-09-14 17:40:00,73.4,57.2,29.84,South,170,0.0,3.0,57,0.00,,,0.34,WeatherTracker,2013-09-14 23:40:00,
2013-09-14 17:45:00,73.2,58.5,29.83,East,84,0.0,3.0,60,0.00,,,0.34,WeatherTracker,2013-09-14 23:45:00,
2013-09-14 17:50:00,73.2,57.5,29.83,East,84,0.0,3.0,58,0.00,,,0.34,WeatherTracker,2013-09-14 23:50:00,
2013-09-14 17:56:00,73.1,57.4,29.84,East,84,0.0,2.0,58,0.00,,,0.34,WeatherTracker,2013-09-14 23:56:00,
2013-09-14 18:01:00,73.0,57.3,29.84,SE,140,0.0,2.0,58,0.00,,,0.34,WeatherTracker,2013-09-15 00:01:00,
2013-09-14 18:06:00,72.9,57.2,29.84,SE,146,0.0,2.0,58,0.00,,,0.34,WeatherTracker,2013-09-15 00:06:00,
2013-09-14 18:11:00,72.9,57.7,29.84,SE,140,0.0,2.0,59,0.00,,,0.34,WeatherTracker,2013-09-15 00:11:00,
2013-09-14 18:16:00,72.8,57.1,29.84,SE,140,0.0,1.0,58,0.00,,,0.34,WeatherTracker,2013-09-15 00:16:00,
2013-09-14 18:21:00,72.9,57.2,29.84,SE,140,1.0,1.0,58,0.00,,,0.34,WeatherTracker,2013-09-15 00:21:00,
2013-09-14 18:26:00,73.2,58.0,29.84,SE,140,0.0,1.0,59,0.00,,,0.34,WeatherTracker,2013-09-15 00:26:00,
2013-09-14 18:31:00,73.3,57.1,29.84,SE,140,0.0,1.0,57,0.00,,,0.34,WeatherTracker,2013-09-15 00:31:00,
2013-09-14 18:36:00,73.2,57.5,29.84,SE,140,0.0,1.0,58,0.00,,,0.34,WeatherTracker,2013-09-15 00:36:00,
2013-09-14 18:41:00,73.0,57.8,29.84,SE,140,0.0,1.0,59,0.00,,,0.34,WeatherTracker,2013-09-15 00:41:00,
2013-09-14 18:46:00,73.0,57.8,29.84,SE,140,0.0,1.0,59,0.00,,,0.34,WeatherTracker,2013-09-15 00:46:00,
2013-09-14 18:51:00,72.8,58.1,29.84,SE,140,0.0,1.0,60,0.00,,,0.34,WeatherTracker,2013-09-15 00:51:00,
2013-09-14 18:56:00,72.4,57.7,29.84,SE,140,0.0,1.0,60,0.00,,,0.34,WeatherTracker,2013-09-15 00:56:00,
2013-09-14 19:01:00,72.1,57.4,29.84,SE,140,0.0,1.0,60,0.00,,,0.34,WeatherTracker,2013-09-15 01:01:00,
2013-09-14 19:06:00,71.5,57.8,29.84,SE,140,0.0,1.0,62,0.00,,,0.34,WeatherTracker,2013-09-15 01:06:00,
2013-09-14 19:11:00,70.8,58.0,29.84,SE,140,0.0,0.0,64,0.00,,,0.34,WeatherTracker,2013-09-15 01:11:00,
2013-09-14 19:16:00,70.4,57.6,29.84,SE,140,0.0,0.0,64,0.00,,,0.34,WeatherTracker,2013-09-15 01:16:00,
2013-09-14 19:21:00,70.1,58.2,29.84,SE,140,0.0,0.0,66,0.00,,,0.34,WeatherTracker,2013-09-15 01:21:00,
2013-09-14 19:26:00,69.8,58.8,29.84,SE,140,0.0,0.0,68,0.00,,,0.34,WeatherTracker,2013-09-15 01:26:00,
2013-09-14 19:31:00,69.7,58.7,29.84,SE,140,0.0,1.0,68,0.00,,,0.34,WeatherTracker,2013-09-15 01:31:00,
2013-09-14 19:36:00,69.8,58.3,29.84,SE,140,0.0,1.0,67,0.00,,,0.34,WeatherTracker,2013-09-15 01:36:00,
2013-09-14 19:41:00,69.7,59.1,29.84,SE,140,0.0,0.0,69,0.00,,,0.34,WeatherTracker,2013-09-15 01:41:00,
2013-09-14 19:46:00,69.4,58.8,29.84,SE,140,0.0,0.0,69,0.00,,,0.34,WeatherTracker,2013-09-15 01:46:00,
2013-09-14 19:51:00,69.2,59.0,29.85,SE,140,0.0,0.0,70,0.00,,,0.34,WeatherTracker,2013-09-15 01:51:00,
2013-09-14 19:56:00,68.9,59.1,29.85,SSW,206,1.0,0.0,71,0.00,,,0.34,WeatherTracker,2013-09-15 01:56:00,
2013-09-14 20:01:00,69.3,59.9,29.86,South,184,0.0,3.0,72,0.00,,,0.34,WeatherTracker,2013-09-15 02:01:00,
2013-09-14 20:06:00,69.4,60.4,29.86,South,184,1.0,4.0,73,0.00,,,0.34,WeatherTracker,2013-09-15 02:06:00,
2013-09-14 20:11:00,69.2,60.2,29.86,WSW,244,0.0,4.0,73,0.00,,,0.34,WeatherTracker,2013-09-15 02:11:00,
2013-09-14 20:16:00,69.0,60.4,29.86,SW,220,0.0,2.0,74,0.00,,,0.34,WeatherTracker,2013-09-15 02:16:00,
2013-09-14 20:22:00,68.8,60.2,29.86,WSW,256,1.0,4.0,74,0.00,,,0.34,WeatherTracker,2013-09-15 02:22:00,
2013-09-14 20:27:00,68.5,60.3,29.86,WSW,255,0.0,4.0,75,0.00,,,0.34,WeatherTracker,2013-09-15 02:27:00,
2013-09-14 20:32:00,68.0,60.1,29.86,WSW,255,0.0,2.0,76,0.00,,,0.34,WeatherTracker,2013-09-15 02:32:00,
2013-09-14 20:37:00,67.6,60.1,29.86,WSW,255,0.0,1.0,77,0.00,,,0.34,WeatherTracker,2013-09-15 02:37:00,
2013-09-14 20:42:00,67.2,60.1,29.86,WSW,255,0.0,0.0,78,0.00,,,0.34,WeatherTracker,2013-09-15 02:42:00,
2013-09-14 20:47:00,67.2,60.1,29.87,WSW,255,0.0,0.0,78,0.00,,,0.34,WeatherTracker,2013-09-15 02:47:00,
2013-09-14 20:52:00,67.6,60.1,29.87,WSW,255,0.0,1.0,77,0.00,,,0.34,WeatherTracker,2013-09-15 02:52:00,
2013-09-14 20:57:00,67.7,59.9,29.87,WSW,255,0.0,1.0,76,0.00,,,0.34,WeatherTracker,2013-09-15 02:57:00,
2013-09-14 21:02:00,67.5,60.4,29.87,WSW,256,0.0,0.0,78,0.00,,,0.34,WeatherTracker,2013-09-15 03:02:00,
2013-09-14 21:07:00,67.3,60.2,29.87,WSW,256,0.0,2.0,78,0.00,,,0.34,WeatherTracker,2013-09-15 03:07:00,
2013-09-14 21:12:00,67.6,60.1,29.87,WSW,255,0.0,2.0,77,0.00,,,0.34,WeatherTracker,2013-09-15 03:12:00,
2013-09-14 21:17:00,67.9,60.0,29.87,WSW,255,0.0,1.0,76,0.00,,,0.34,WeatherTracker,2013-09-15 03:17:00,
2013-09-14 21:22:00,67.7,60.2,29.87,WSW,255,0.0,0.0,77,0.00,,,0.34,WeatherTracker,2013-09-15 03:22:00,
2013-09-14 21:27:00,67.5,60.0,29.87,WSW,255,0.0,0.0,77,0.00,,,0.34,WeatherTracker,2013-09-15 03:27:00,
2013-09-14 21:32:00,67.3,60.2,29.88,WSW,255,0.0,0.0,78,0.00,,,0.34,WeatherTracker,2013-09-15 03:32:00,
2013-09-14 21:37:00,66.9,60.5,29.88,WSW,255,0.0,0.0,80,0.00,,,0.34,WeatherTracker,2013-09-15 03:37:00,
2013-09-14 21:42:00,66.5,60.1,29.88,WSW,255,0.0,0.0,80,0.00,,,0.34,WeatherTracker,2013-09-15 03:42:00,
2013-09-14 21:47:00,66.8,60.1,29.88,WSW,255,0.0,0.0,79,0.00,,,0.34,WeatherTracker,2013-09-15 03:47:00,
2013-09-14 21:52:00,67.1,60.0,29.88,WSW,255,0.0,0.0,78,0.00,,,0.34,WeatherTracker,2013-09-15 03:52:00,
2013-09-14 21:57:00,67.0,59.9,29.87,WSW,255,0.0,0.0,78,0.00,,,0.34,WeatherTracker,2013-09-15 03:57:00,
2013-09-14 22:01:00,67.0,59.9,29.87,WSW,255,0.0,0.0,78,0.00,,,0.34,WeatherTracker,2013-09-15 04:01:00,
2013-09-14 22:02:00,66.9,60.2,29.87,WSW,256,0.0,0.0,79,0.00,,,0.34,WeatherTracker,2013-09-15 04:02:00,
2013-09-14 22:03:00,66.8,60.1,29.87,WSW,255,0.0,0.0,79,0.00,,,0.34,WeatherTracker,2013-09-15 04:03:00,
2013-09-14 22:08:00,66.9,60.2,29.88,WSW,256,0.0,1.0,79,0.00,,,0.34,WeatherTracker,2013-09-15 04:08:00,
2013-09-14 22:13:00,67.2,60.5,29.88,WSW,256,0.0,1.0,79,0.00,,,0.34,WeatherTracker,2013-09-15 04:13:00,
2013-09-14 22:18:00,67.5,60.4,29.88,WSW,255,0.0,1.0,78,0.00,,,0.34,WeatherTracker,2013-09-15 04:18:00,
2013-09-14 22:23:00,67.6,60.8,29.88,WSW,255,0.0,1.0,79,0.00,,,0.34,WeatherTracker,2013-09-15 04:23:00,
2013-09-14 22:28:00,67.3,61.3,29.88,WSW,255,0.0,1.0,81,0.00,,,0.34,WeatherTracker,2013-09-15 04:28:00,
2013-09-14 22:33:00,67.1,61.4,29.88,WSW,255,0.0,1.0,82,0.00,,,0.34,WeatherTracker,2013-09-15 04:33:00,
2013-09-14 22:38:00,67.2,61.5,29.89,North,351,1.0,5.0,82,0.00,,,0.34,WeatherTracker,2013-09-15 04:38:00,
2013-09-14 22:43:00,67.4,60.7,29.90,North,355,2.0,7.0,79,0.00,,,0.34,WeatherTracker,2013-09-15 04:43:00,
2013-09-14 22:48:00,66.1,60.4,29.92,ESE,105,4.0,10.0,82,0.07,,,0.41,WeatherTracker,2013-09-15 04:48:00,
2013-09-14 22:53:00,63.3,58.4,29.90,ESE,107,0.0,15.0,84,0.26,,,0.60,WeatherTracker,2013-09-15 04:53:00,
2013-09-14 22:59:00,62.1,58.2,29.91,East,79,8.0,15.0,87,0.33,,,0.67,WeatherTracker,2013-09-15 04:59:00,
2013-09-14 23:04:00,61.0,57.4,29.92,ESE,111,8.0,10.0,88,0.40,,,0.74,WeatherTracker,2013-09-15 05:04:00,
2013-09-14 23:09:00,60.5,57.2,29.92,ENE,72,0.0,9.0,89,0.45,,,0.79,WeatherTracker,2013-09-15 05:09:00,
2013-09-14 23:14:00,60.5,57.2,29.91,NE,38,1.0,8.0,89,0.48,,,0.82,WeatherTracker,2013-09-15 05:14:00,
2013-09-14 23:19:00,60.4,57.1,29.91,NNE,23,4.0,6.0,89,0.52,,,0.86,WeatherTracker,2013-09-15 05:19:00,
2013-09-14 23:24:00,60.3,56.7,29.90,North,5,2.0,8.0,88,0.55,,,0.89,WeatherTracker,2013-09-15 05:24:00,
2013-09-14 23:29:00,60.0,56.4,29.91,North,349,5.0,9.0,88,0.55,,,0.89,WeatherTracker,2013-09-15 05:29:00,
2013-09-14 23:34:00,60.0,56.7,29.91,NNW,328,4.0,9.0,89,0.55,,,0.89,WeatherTracker,2013-09-15 05:34:00,
2013-09-14 23:39:00,60.1,56.8,29.92,SSW,204,3.0,7.0,89,0.55,,,0.89,WeatherTracker,2013-09-15 05:39:00,
2013-09-14 23:44:00,60.0,57.1,29.93,West,263,2.0,6.0,90,0.55,,,0.89,WeatherTracker,2013-09-15 05:44:00,
2013-09-14 23:49:00,60.4,57.1,29.94,WSW,254,0.0,6.0,89,0.45,,,0.89,WeatherTracker,2013-09-15 05:49:00,
2013-09-14 23:54:00,60.4,57.1,29.94,West,275,3.0,6.0,89,0.30,,,0.90,WeatherTracker,2013-09-15 05:54:00,
2013-09-14 23:59:00,60.1,56.8,29.94,WSW,239,3.0,6.0,89,0.23,,,0.91,WeatherTracker,2013-09-15 05:59:00,